sensor_id;sensor_type;location;lat;lon;timestamp;P1;durP1;ratioP1;P2;durP2;ratioP2
21206;SDS011;10761;48.532;8.026;2023-08-06T00:02:12;5.68;;;1.75;;
21206;SDS011;10761;48.532;8.026;2023-08-06T00:04:38;2.08;;;1.50;;
21206;SDS011;10761;48.532;8.026;2023-08-06T00:07:04;2.30;;;1.48;;
21206;SDS011;10761;48.532;8.026;2023-08-06T00:09:29;5.18;;;1.70;;
21206;SDS011;10761;48.532;8.026;2023-08-06T00:11:55;5.30;;;1.80;;
21206;SDS011;10761;48.532;8.026;2023-08-06T00:14:21;3.88;;;1.70;;
21206;SDS011;10761;48.532;8.026;2023-08-06T00:16:46;4.07;;;1.63;;
21206;SDS011;10761;48.532;8.026;2023-08-06T00:19:12;5.18;;;1.70;;
21206;SDS011;10761;48.532;8.026;2023-08-06T00:21:38;2.17;;;1.40;;
21206;SDS011;10761;48.532;8.026;2023-08-06T00:24:03;5.70;;;1.80;;
21206;SDS011;10761;48.532;8.026;2023-08-06T00:26:29;3.22;;;1.48;;
21206;SDS011;10761;48.532;8.026;2023-08-06T00:28:55;3.38;;;1.90;;
21206;SDS011;10761;48.532;8.026;2023-08-06T00:31:20;4.65;;;2.08;;
21206;SDS011;10761;48.532;8.026;2023-08-06T00:33:46;4.78;;;2.00;;
21206;SDS011;10761;48.532;8.026;2023-08-06T00:36:11;2.92;;;1.80;;
21206;SDS011;10761;48.532;8.026;2023-08-06T00:38:37;4.95;;;1.98;;
21206;SDS011;10761;48.532;8.026;2023-08-06T00:41:02;4.53;;;2.25;;
21206;SDS011;10761;48.532;8.026;2023-08-06T00:43:28;4.47;;;1.80;;
21206;SDS011;10761;48.532;8.026;2023-08-06T00:45:54;6.15;;;1.90;;
21206;SDS011;10761;48.532;8.026;2023-08-06T00:48:20;4.63;;;1.95;;
21206;SDS011;10761;48.532;8.026;2023-08-06T00:50:45;3.95;;;1.90;;
21206;SDS011;10761;48.532;8.026;2023-08-06T00:53:11;4.72;;;2.08;;
21206;SDS011;10761;48.532;8.026;2023-08-06T00:55:37;3.42;;;2.10;;
21206;SDS011;10761;48.532;8.026;2023-08-06T00:58:03;5.15;;;2.03;;
21206;SDS011;10761;48.532;8.026;2023-08-06T01:00:29;4.40;;;1.80;;
21206;SDS011;10761;48.532;8.026;2023-08-06T01:02:55;4.57;;;1.83;;
21206;SDS011;10761;48.532;8.026;2023-08-06T01:05:21;4.18;;;1.90;;
21206;SDS011;10761;48.532;8.026;2023-08-06T01:11:08;2.10;;;1.75;;
21206;SDS011;10761;48.532;8.026;2023-08-06T01:14:06;3.80;;;1.88;;
21206;SDS011;10761;48.532;8.026;2023-08-06T01:16:46;3.65;;;1.90;;
21206;SDS011;10761;48.532;8.026;2023-08-06T01:19:19;3.17;;;1.80;;
21206;SDS011;10761;48.532;8.026;2023-08-06T01:21:46;3.15;;;1.75;;
21206;SDS011;10761;48.532;8.026;2023-08-06T01:24:11;3.08;;;1.73;;
21206;SDS011;10761;48.532;8.026;2023-08-06T01:29:15;2.65;;;1.67;;
21206;SDS011;10761;48.532;8.026;2023-08-06T01:31:46;4.78;;;1.75;;
21206;SDS011;10761;48.532;8.026;2023-08-06T01:34:15;4.15;;;1.80;;
21206;SDS011;10761;48.532;8.026;2023-08-06T01:39:11;1.98;;;1.60;;
21206;SDS011;10761;48.532;8.026;2023-08-06T01:41:37;3.42;;;1.40;;
21206;SDS011;10761;48.532;8.026;2023-08-06T01:44:02;3.88;;;1.67;;
21206;SDS011;10761;48.532;8.026;2023-08-06T01:46:28;2.45;;;1.60;;
21206;SDS011;10761;48.532;8.026;2023-08-06T01:48:53;4.82;;;1.58;;
21206;SDS011;10761;48.532;8.026;2023-08-06T01:51:19;3.03;;;1.48;;
21206;SDS011;10761;48.532;8.026;2023-08-06T01:53:44;4.15;;;1.60;;
21206;SDS011;10761;48.532;8.026;2023-08-06T01:56:10;4.63;;;1.40;;
21206;SDS011;10761;48.532;8.026;2023-08-06T01:58:36;1.45;;;1.35;;
21206;SDS011;10761;48.532;8.026;2023-08-06T02:01:01;4.75;;;1.85;;
21206;SDS011;10761;48.532;8.026;2023-08-06T02:03:27;6.07;;;2.20;;
21206;SDS011;10761;48.532;8.026;2023-08-06T02:05:52;2.75;;;1.83;;
21206;SDS011;10761;48.532;8.026;2023-08-06T02:08:18;3.92;;;2.28;;
21206;SDS011;10761;48.532;8.026;2023-08-06T02:10:44;3.35;;;2.08;;
21206;SDS011;10761;48.532;8.026;2023-08-06T02:13:10;4.80;;;2.00;;
21206;SDS011;10761;48.532;8.026;2023-08-06T02:15:37;3.10;;;2.05;;
21206;SDS011;10761;48.532;8.026;2023-08-06T02:18:07;4.65;;;1.80;;
21206;SDS011;10761;48.532;8.026;2023-08-06T02:20:33;3.47;;;1.70;;
21206;SDS011;10761;48.532;8.026;2023-08-06T02:22:58;5.20;;;2.22;;
21206;SDS011;10761;48.532;8.026;2023-08-06T02:25:24;5.10;;;2.30;;
21206;SDS011;10761;48.532;8.026;2023-08-06T02:27:49;6.03;;;2.30;;
21206;SDS011;10761;48.532;8.026;2023-08-06T02:30:15;4.72;;;2.35;;
21206;SDS011;10761;48.532;8.026;2023-08-06T02:32:41;5.40;;;2.85;;
21206;SDS011;10761;48.532;8.026;2023-08-06T02:35:06;7.32;;;2.63;;
21206;SDS011;10761;48.532;8.026;2023-08-06T02:37:35;6.03;;;2.80;;
21206;SDS011;10761;48.532;8.026;2023-08-06T02:40:01;5.68;;;2.90;;
21206;SDS011;10761;48.532;8.026;2023-08-06T02:42:27;3.67;;;2.30;;
21206;SDS011;10761;48.532;8.026;2023-08-06T02:44:53;5.65;;;2.80;;
21206;SDS011;10761;48.532;8.026;2023-08-06T02:47:21;5.25;;;2.55;;
21206;SDS011;10761;48.532;8.026;2023-08-06T02:49:47;7.35;;;2.58;;
21206;SDS011;10761;48.532;8.026;2023-08-06T02:52:12;5.38;;;2.72;;
21206;SDS011;10761;48.532;8.026;2023-08-06T02:54:38;4.90;;;2.45;;
21206;SDS011;10761;48.532;8.026;2023-08-06T02:57:04;5.80;;;2.45;;
21206;SDS011;10761;48.532;8.026;2023-08-06T02:59:30;5.68;;;2.70;;
21206;SDS011;10761;48.532;8.026;2023-08-06T03:01:56;4.68;;;2.45;;
21206;SDS011;10761;48.532;8.026;2023-08-06T03:04:22;5.88;;;2.70;;
21206;SDS011;10761;48.532;8.026;2023-08-06T03:06:51;7.30;;;2.40;;
21206;SDS011;10761;48.532;8.026;2023-08-06T03:09:17;7.68;;;2.53;;
21206;SDS011;10761;48.532;8.026;2023-08-06T03:11:42;6.70;;;2.78;;
21206;SDS011;10761;48.532;8.026;2023-08-06T03:14:08;5.55;;;2.53;;
21206;SDS011;10761;48.532;8.026;2023-08-06T03:16:34;5.57;;;2.60;;
21206;SDS011;10761;48.532;8.026;2023-08-06T03:18:59;7.53;;;2.70;;
21206;SDS011;10761;48.532;8.026;2023-08-06T03:21:25;6.40;;;2.22;;
21206;SDS011;10761;48.532;8.026;2023-08-06T03:23:51;4.85;;;2.00;;
21206;SDS011;10761;48.532;8.026;2023-08-06T03:26:16;6.85;;;2.05;;
21206;SDS011;10761;48.532;8.026;2023-08-06T03:28:42;7.22;;;2.10;;
21206;SDS011;10761;48.532;8.026;2023-08-06T03:31:08;6.78;;;1.80;;
21206;SDS011;10761;48.532;8.026;2023-08-06T03:33:34;10.02;;;2.15;;
21206;SDS011;10761;48.532;8.026;2023-08-06T03:35:59;5.95;;;1.90;;
21206;SDS011;10761;48.532;8.026;2023-08-06T03:38:25;5.95;;;1.90;;
21206;SDS011;10761;48.532;8.026;2023-08-06T03:40:51;5.68;;;1.90;;
21206;SDS011;10761;48.532;8.026;2023-08-06T03:43:16;5.55;;;1.95;;
21206;SDS011;10761;48.532;8.026;2023-08-06T03:45:42;4.18;;;1.90;;
21206;SDS011;10761;48.532;8.026;2023-08-06T03:48:08;6.43;;;2.10;;
21206;SDS011;10761;48.532;8.026;2023-08-06T03:50:34;5.13;;;1.80;;
21206;SDS011;10761;48.532;8.026;2023-08-06T03:52:59;4.55;;;1.58;;
21206;SDS011;10761;48.532;8.026;2023-08-06T03:55:25;4.00;;;1.60;;
21206;SDS011;10761;48.532;8.026;2023-08-06T03:57:51;2.97;;;1.40;;
21206;SDS011;10761;48.532;8.026;2023-08-06T04:00:16;8.18;;;2.05;;
21206;SDS011;10761;48.532;8.026;2023-08-06T04:02:42;6.90;;;1.92;;
21206;SDS011;10761;48.532;8.026;2023-08-06T04:05:08;5.03;;;1.60;;
21206;SDS011;10761;48.532;8.026;2023-08-06T04:07:34;4.38;;;1.55;;
21206;SDS011;10761;48.532;8.026;2023-08-06T04:10:00;2.95;;;1.50;;
21206;SDS011;10761;48.532;8.026;2023-08-06T04:12:27;4.55;;;1.70;;
21206;SDS011;10761;48.532;8.026;2023-08-06T04:14:53;5.60;;;1.67;;
21206;SDS011;10761;48.532;8.026;2023-08-06T04:17:20;3.55;;;1.63;;
21206;SDS011;10761;48.532;8.026;2023-08-06T04:19:53;5.00;;;1.77;;
21206;SDS011;10761;48.532;8.026;2023-08-06T04:22:19;4.55;;;1.50;;
21206;SDS011;10761;48.532;8.026;2023-08-06T04:24:46;6.45;;;1.40;;
21206;SDS011;10761;48.532;8.026;2023-08-06T04:27:12;3.00;;;1.27;;
21206;SDS011;10761;48.532;8.026;2023-08-06T04:29:38;3.60;;;1.10;;
21206;SDS011;10761;48.532;8.026;2023-08-06T04:32:05;3.25;;;0.82;;
21206;SDS011;10761;48.532;8.026;2023-08-06T04:34:33;1.80;;;1.10;;
21206;SDS011;10761;48.532;8.026;2023-08-06T04:37:00;2.40;;;0.82;;
21206;SDS011;10761;48.532;8.026;2023-08-06T04:39:25;2.42;;;0.98;;
21206;SDS011;10761;48.532;8.026;2023-08-06T04:41:51;3.30;;;0.80;;
21206;SDS011;10761;48.532;8.026;2023-08-06T04:44:17;3.08;;;0.55;;
21206;SDS011;10761;48.532;8.026;2023-08-06T04:46:42;1.90;;;0.77;;
21206;SDS011;10761;48.532;8.026;2023-08-06T04:49:08;1.38;;;0.63;;
21206;SDS011;10761;48.532;8.026;2023-08-06T04:51:33;2.83;;;1.20;;
21206;SDS011;10761;48.532;8.026;2023-08-06T04:53:59;2.28;;;0.80;;
21206;SDS011;10761;48.532;8.026;2023-08-06T04:56:24;3.53;;;0.90;;
21206;SDS011;10761;48.532;8.026;2023-08-06T04:58:50;4.13;;;0.90;;
21206;SDS011;10761;48.532;8.026;2023-08-06T05:01:16;3.17;;;0.95;;
21206;SDS011;10761;48.532;8.026;2023-08-06T05:03:42;1.42;;;0.80;;
21206;SDS011;10761;48.532;8.026;2023-08-06T05:06:07;7.22;;;1.23;;
21206;SDS011;10761;48.532;8.026;2023-08-06T05:08:33;2.10;;;0.85;;
21206;SDS011;10761;48.532;8.026;2023-08-06T05:10:58;2.92;;;1.20;;
21206;SDS011;10761;48.532;8.026;2023-08-06T05:13:24;2.92;;;0.93;;
21206;SDS011;10761;48.532;8.026;2023-08-06T05:15:50;2.03;;;1.17;;
21206;SDS011;10761;48.532;8.026;2023-08-06T05:18:18;1.77;;;0.90;;
21206;SDS011;10761;48.532;8.026;2023-08-06T05:20:44;2.97;;;1.10;;
21206;SDS011;10761;48.532;8.026;2023-08-06T05:23:10;2.38;;;1.00;;
21206;SDS011;10761;48.532;8.026;2023-08-06T05:25:36;4.18;;;0.95;;
21206;SDS011;10761;48.532;8.026;2023-08-06T05:28:02;3.17;;;1.20;;
21206;SDS011;10761;48.532;8.026;2023-08-06T05:30:28;4.05;;;1.20;;
21206;SDS011;10761;48.532;8.026;2023-08-06T05:32:54;3.45;;;1.10;;
21206;SDS011;10761;48.532;8.026;2023-08-06T05:35:20;1.45;;;0.70;;
21206;SDS011;10761;48.532;8.026;2023-08-06T05:37:46;3.25;;;0.90;;
21206;SDS011;10761;48.532;8.026;2023-08-06T05:40:12;1.92;;;0.80;;
21206;SDS011;10761;48.532;8.026;2023-08-06T05:42:37;4.07;;;0.90;;
21206;SDS011;10761;48.532;8.026;2023-08-06T05:45:04;4.60;;;0.80;;
21206;SDS011;10761;48.532;8.026;2023-08-06T05:47:29;2.22;;;0.70;;
21206;SDS011;10761;48.532;8.026;2023-08-06T05:49:55;4.45;;;0.70;;
21206;SDS011;10761;48.532;8.026;2023-08-06T05:52:20;3.88;;;0.90;;
21206;SDS011;10761;48.532;8.026;2023-08-06T05:54:46;3.42;;;0.82;;
21206;SDS011;10761;48.532;8.026;2023-08-06T05:57:12;2.10;;;0.68;;
21206;SDS011;10761;48.532;8.026;2023-08-06T05:59:37;5.20;;;0.70;;
21206;SDS011;10761;48.532;8.026;2023-08-06T06:02:05;1.13;;;0.55;;
21206;SDS011;10761;48.532;8.026;2023-08-06T06:04:32;5.35;;;0.90;;
21206;SDS011;10761;48.532;8.026;2023-08-06T06:06:57;3.22;;;0.80;;
21206;SDS011;10761;48.532;8.026;2023-08-06T06:09:23;2.75;;;0.70;;
21206;SDS011;10761;48.532;8.026;2023-08-06T06:11:48;2.35;;;0.60;;
21206;SDS011;10761;48.532;8.026;2023-08-06T06:14:15;3.15;;;0.70;;
21206;SDS011;10761;48.532;8.026;2023-08-06T06:16:41;5.35;;;0.68;;
21206;SDS011;10761;48.532;8.026;2023-08-06T06:19:07;2.70;;;0.70;;
21206;SDS011;10761;48.532;8.026;2023-08-06T06:21:32;1.63;;;0.50;;
21206;SDS011;10761;48.532;8.026;2023-08-06T06:23:58;3.03;;;0.70;;
21206;SDS011;10761;48.532;8.026;2023-08-06T06:26:24;1.67;;;0.60;;
21206;SDS011;10761;48.532;8.026;2023-08-06T06:28:49;3.13;;;0.60;;
21206;SDS011;10761;48.532;8.026;2023-08-06T06:31:15;4.50;;;1.10;;
21206;SDS011;10761;48.532;8.026;2023-08-06T06:33:40;2.45;;;0.70;;
21206;SDS011;10761;48.532;8.026;2023-08-06T06:36:06;2.83;;;0.68;;
21206;SDS011;10761;48.532;8.026;2023-08-06T06:38:32;1.75;;;0.80;;
21206;SDS011;10761;48.532;8.026;2023-08-06T06:40:58;3.40;;;0.75;;
21206;SDS011;10761;48.532;8.026;2023-08-06T06:43:24;4.25;;;0.75;;
21206;SDS011;10761;48.532;8.026;2023-08-06T06:45:53;3.63;;;1.17;;
21206;SDS011;10761;48.532;8.026;2023-08-06T06:48:22;3.78;;;0.93;;
21206;SDS011;10761;48.532;8.026;2023-08-06T06:50:47;3.97;;;0.63;;
21206;SDS011;10761;48.532;8.026;2023-08-06T06:53:13;5.25;;;1.13;;
21206;SDS011;10761;48.532;8.026;2023-08-06T06:55:39;3.42;;;0.80;;
21206;SDS011;10761;48.532;8.026;2023-08-06T06:58:05;3.67;;;0.80;;
21206;SDS011;10761;48.532;8.026;2023-08-06T07:00:30;2.50;;;0.85;;
21206;SDS011;10761;48.532;8.026;2023-08-06T07:02:56;1.75;;;0.63;;
21206;SDS011;10761;48.532;8.026;2023-08-06T07:05:21;3.72;;;0.90;;
21206;SDS011;10761;48.532;8.026;2023-08-06T07:07:47;4.55;;;0.95;;
21206;SDS011;10761;48.532;8.026;2023-08-06T07:10:13;4.95;;;0.80;;
21206;SDS011;10761;48.532;8.026;2023-08-06T07:12:38;2.30;;;0.80;;
21206;SDS011;10761;48.532;8.026;2023-08-06T07:15:05;2.60;;;0.70;;
21206;SDS011;10761;48.532;8.026;2023-08-06T07:17:31;2.15;;;0.80;;
21206;SDS011;10761;48.532;8.026;2023-08-06T07:19:57;1.08;;;0.52;;
21206;SDS011;10761;48.532;8.026;2023-08-06T07:22:22;2.50;;;0.50;;
21206;SDS011;10761;48.532;8.026;2023-08-06T07:24:48;1.10;;;0.50;;
21206;SDS011;10761;48.532;8.026;2023-08-06T07:27:14;3.22;;;0.77;;
21206;SDS011;10761;48.532;8.026;2023-08-06T07:29:39;3.50;;;0.55;;
21206;SDS011;10761;48.532;8.026;2023-08-06T07:32:06;0.32;;;0.32;;
21206;SDS011;10761;48.532;8.026;2023-08-06T07:34:32;2.28;;;0.60;;
21206;SDS011;10761;48.532;8.026;2023-08-06T07:36:58;3.75;;;1.13;;
21206;SDS011;10761;48.532;8.026;2023-08-06T07:39:23;2.08;;;0.60;;
21206;SDS011;10761;48.532;8.026;2023-08-06T07:41:49;1.90;;;0.50;;
21206;SDS011;10761;48.532;8.026;2023-08-06T07:44:15;1.52;;;0.80;;
21206;SDS011;10761;48.532;8.026;2023-08-06T07:46:40;2.28;;;0.50;;
21206;SDS011;10761;48.532;8.026;2023-08-06T07:49:06;1.50;;;0.50;;
21206;SDS011;10761;48.532;8.026;2023-08-06T07:51:32;1.70;;;0.45;;
21206;SDS011;10761;48.532;8.026;2023-08-06T07:53:58;2.55;;;0.60;;
21206;SDS011;10761;48.532;8.026;2023-08-06T07:56:23;2.15;;;0.40;;
21206;SDS011;10761;48.532;8.026;2023-08-06T07:58:49;1.98;;;0.60;;
21206;SDS011;10761;48.532;8.026;2023-08-06T08:01:14;1.20;;;0.50;;
21206;SDS011;10761;48.532;8.026;2023-08-06T08:03:40;2.80;;;0.80;;
21206;SDS011;10761;48.532;8.026;2023-08-06T08:06:05;2.97;;;0.50;;
21206;SDS011;10761;48.532;8.026;2023-08-06T08:08:31;4.32;;;0.77;;
21206;SDS011;10761;48.532;8.026;2023-08-06T08:10:57;3.80;;;0.80;;
21206;SDS011;10761;48.532;8.026;2023-08-06T08:13:24;2.17;;;0.90;;
21206;SDS011;10761;48.532;8.026;2023-08-06T08:15:49;5.03;;;0.70;;
21206;SDS011;10761;48.532;8.026;2023-08-06T08:18:21;2.03;;;0.60;;
21206;SDS011;10761;48.532;8.026;2023-08-06T08:20:46;4.07;;;0.80;;
21206;SDS011;10761;48.532;8.026;2023-08-06T08:23:12;1.80;;;0.70;;
21206;SDS011;10761;48.532;8.026;2023-08-06T08:25:37;4.22;;;0.73;;
21206;SDS011;10761;48.532;8.026;2023-08-06T08:28:03;2.42;;;0.60;;
21206;SDS011;10761;48.532;8.026;2023-08-06T08:30:28;0.85;;;0.43;;
21206;SDS011;10761;48.532;8.026;2023-08-06T08:32:54;2.60;;;0.85;;
21206;SDS011;10761;48.532;8.026;2023-08-06T08:35:20;3.78;;;0.77;;
21206;SDS011;10761;48.532;8.026;2023-08-06T08:37:45;1.40;;;0.70;;
21206;SDS011;10761;48.532;8.026;2023-08-06T08:40:11;2.00;;;0.50;;
21206;SDS011;10761;48.532;8.026;2023-08-06T08:42:37;2.75;;;0.82;;
21206;SDS011;10761;48.532;8.026;2023-08-06T08:45:04;2.42;;;0.52;;
21206;SDS011;10761;48.532;8.026;2023-08-06T08:47:31;2.90;;;0.70;;
21206;SDS011;10761;48.532;8.026;2023-08-06T08:49:57;1.60;;;0.60;;
21206;SDS011;10761;48.532;8.026;2023-08-06T08:52:22;1.65;;;0.60;;
21206;SDS011;10761;48.532;8.026;2023-08-06T08:54:50;1.58;;;0.50;;
21206;SDS011;10761;48.532;8.026;2023-08-06T08:57:18;1.63;;;0.38;;
21206;SDS011;10761;48.532;8.026;2023-08-06T08:59:44;4.20;;;0.65;;
21206;SDS011;10761;48.532;8.026;2023-08-06T09:02:11;1.67;;;0.50;;
21206;SDS011;10761;48.532;8.026;2023-08-06T09:04:40;2.42;;;0.43;;
21206;SDS011;10761;48.532;8.026;2023-08-06T09:07:07;1.85;;;0.47;;
21206;SDS011;10761;48.532;8.026;2023-08-06T09:09:35;2.65;;;0.50;;
21206;SDS011;10761;48.532;8.026;2023-08-06T09:12:05;0.75;;;0.32;;
21206;SDS011;10761;48.532;8.026;2023-08-06T09:14:37;1.33;;;0.60;;
21206;SDS011;10761;48.532;8.026;2023-08-06T09:17:03;4.22;;;0.65;;
21206;SDS011;10761;48.532;8.026;2023-08-06T09:19:29;4.00;;;0.60;;
21206;SDS011;10761;48.532;8.026;2023-08-06T09:21:55;1.25;;;0.40;;
21206;SDS011;10761;48.532;8.026;2023-08-06T09:24:21;1.08;;;0.40;;
21206;SDS011;10761;48.532;8.026;2023-08-06T09:26:47;1.67;;;0.50;;
21206;SDS011;10761;48.532;8.026;2023-08-06T09:29:12;0.65;;;0.40;;
21206;SDS011;10761;48.532;8.026;2023-08-06T09:31:49;3.65;;;0.43;;
21206;SDS011;10761;48.532;8.026;2023-08-06T09:34:19;2.05;;;0.40;;
21206;SDS011;10761;48.532;8.026;2023-08-06T09:36:47;4.03;;;1.00;;
21206;SDS011;10761;48.532;8.026;2023-08-06T09:39:16;1.00;;;0.50;;
21206;SDS011;10761;48.532;8.026;2023-08-06T09:41:43;2.38;;;0.40;;
21206;SDS011;10761;48.532;8.026;2023-08-06T09:44:15;1.75;;;0.45;;
21206;SDS011;10761;48.532;8.026;2023-08-06T09:46:48;0.90;;;0.40;;
21206;SDS011;10761;48.532;8.026;2023-08-06T09:49:14;1.85;;;0.43;;
21206;SDS011;10761;48.532;8.026;2023-08-06T09:51:40;0.70;;;0.50;;
21206;SDS011;10761;48.532;8.026;2023-08-06T09:54:06;2.08;;;0.57;;
21206;SDS011;10761;48.532;8.026;2023-08-06T09:56:33;2.40;;;0.75;;
21206;SDS011;10761;48.532;8.026;2023-08-06T09:59:03;1.33;;;0.50;;
21206;SDS011;10761;48.532;8.026;2023-08-06T10:01:32;1.10;;;0.50;;
21206;SDS011;10761;48.532;8.026;2023-08-06T10:04:01;1.75;;;0.60;;
21206;SDS011;10761;48.532;8.026;2023-08-06T10:06:29;0.47;;;0.40;;
21206;SDS011;10761;48.532;8.026;2023-08-06T10:08:54;0.75;;;0.30;;
21206;SDS011;10761;48.532;8.026;2023-08-06T10:11:23;0.47;;;0.40;;
21206;SDS011;10761;48.532;8.026;2023-08-06T10:16:22;0.55;;;0.32;;
21206;SDS011;10761;48.532;8.026;2023-08-06T10:18:48;0.20;;;0.20;;
21206;SDS011;10761;48.532;8.026;2023-08-06T10:21:14;0.88;;;0.30;;
21206;SDS011;10761;48.532;8.026;2023-08-06T10:23:41;0.25;;;0.25;;
21206;SDS011;10761;48.532;8.026;2023-08-06T10:26:07;0.50;;;0.50;;
21206;SDS011;10761;48.532;8.026;2023-08-06T10:28:36;0.40;;;0.30;;
21206;SDS011;10761;48.532;8.026;2023-08-06T10:31:03;3.08;;;0.55;;
21206;SDS011;10761;48.532;8.026;2023-08-06T10:33:45;0.10;;;0.10;;
21206;SDS011;10761;48.532;8.026;2023-08-06T10:36:12;0.60;;;0.40;;
21206;SDS011;10761;48.532;8.026;2023-08-06T10:38:44;0.20;;;0.20;;
21206;SDS011;10761;48.532;8.026;2023-08-06T10:41:27;2.28;;;0.40;;
21206;SDS011;10761;48.532;8.026;2023-08-06T10:44:06;0.50;;;0.50;;
21206;SDS011;10761;48.532;8.026;2023-08-06T10:46:33;0.75;;;0.75;;
21206;SDS011;10761;48.532;8.026;2023-08-06T10:48:59;1.00;;;0.90;;
21206;SDS011;10761;48.532;8.026;2023-08-06T10:51:25;2.17;;;0.90;;
21206;SDS011;10761;48.532;8.026;2023-08-06T10:53:50;1.15;;;1.00;;
21206;SDS011;10761;48.532;8.026;2023-08-06T10:56:17;1.27;;;1.17;;
21206;SDS011;10761;48.532;8.026;2023-08-06T10:58:47;1.92;;;1.00;;
21206;SDS011;10761;48.532;8.026;2023-08-06T11:01:14;2.20;;;1.27;;
21206;SDS011;10761;48.532;8.026;2023-08-06T11:03:41;2.65;;;1.50;;
21206;SDS011;10761;48.532;8.026;2023-08-06T11:06:07;1.55;;;1.40;;
21206;SDS011;10761;48.532;8.026;2023-08-06T11:08:34;1.80;;;1.30;;
21206;SDS011;10761;48.532;8.026;2023-08-06T11:11:10;3.78;;;1.20;;
21206;SDS011;10761;48.532;8.026;2023-08-06T11:13:47;3.50;;;1.33;;
21206;SDS011;10761;48.532;8.026;2023-08-06T11:16:14;2.92;;;1.52;;
21206;SDS011;10761;48.532;8.026;2023-08-06T11:18:41;3.03;;;1.38;;
21206;SDS011;10761;48.532;8.026;2023-08-06T11:21:07;2.08;;;1.45;;
21206;SDS011;10761;48.532;8.026;2023-08-06T11:23:33;2.38;;;1.90;;
21206;SDS011;10761;48.532;8.026;2023-08-06T11:26:00;2.33;;;1.55;;
21206;SDS011;10761;48.532;8.026;2023-08-06T11:28:26;2.05;;;1.52;;
21206;SDS011;10761;48.532;8.026;2023-08-06T11:30:51;4.03;;;1.73;;
21206;SDS011;10761;48.532;8.026;2023-08-06T11:33:23;3.30;;;1.85;;
21206;SDS011;10761;48.532;8.026;2023-08-06T11:35:53;5.30;;;1.60;;
21206;SDS011;10761;48.532;8.026;2023-08-06T11:38:21;2.58;;;1.80;;
21206;SDS011;10761;48.532;8.026;2023-08-06T11:40:50;2.53;;;1.73;;
21206;SDS011;10761;48.532;8.026;2023-08-06T11:43:16;1.73;;;1.60;;
21206;SDS011;10761;48.532;8.026;2023-08-06T11:45:47;3.35;;;1.80;;
21206;SDS011;10761;48.532;8.026;2023-08-06T11:48:14;2.20;;;1.65;;
21206;SDS011;10761;48.532;8.026;2023-08-06T11:50:40;2.08;;;1.27;;
21206;SDS011;10761;48.532;8.026;2023-08-06T11:53:05;2.63;;;1.58;;
21206;SDS011;10761;48.532;8.026;2023-08-06T11:55:31;2.03;;;1.25;;
21206;SDS011;10761;48.532;8.026;2023-08-06T11:57:57;2.03;;;1.17;;
21206;SDS011;10761;48.532;8.026;2023-08-06T12:00:26;1.20;;;1.10;;
21206;SDS011;10761;48.532;8.026;2023-08-06T12:02:52;3.17;;;1.05;;
21206;SDS011;10761;48.532;8.026;2023-08-06T12:05:21;1.42;;;0.95;;
21206;SDS011;10761;48.532;8.026;2023-08-06T12:07:51;1.38;;;1.08;;
21206;SDS011;10761;48.532;8.026;2023-08-06T12:10:18;2.58;;;1.10;;
21206;SDS011;10761;48.532;8.026;2023-08-06T12:12:45;2.67;;;0.90;;
21206;SDS011;10761;48.532;8.026;2023-08-06T12:15:11;2.40;;;1.05;;
21206;SDS011;10761;48.532;8.026;2023-08-06T12:17:37;0.70;;;0.70;;
21206;SDS011;10761;48.532;8.026;2023-08-06T12:20:04;1.40;;;0.80;;
21206;SDS011;10761;48.532;8.026;2023-08-06T12:22:30;1.17;;;0.80;;
21206;SDS011;10761;48.532;8.026;2023-08-06T12:25:00;1.33;;;0.70;;
21206;SDS011;10761;48.532;8.026;2023-08-06T12:27:27;2.20;;;0.70;;
21206;SDS011;10761;48.532;8.026;2023-08-06T12:29:53;0.60;;;0.60;;
21206;SDS011;10761;48.532;8.026;2023-08-06T12:32:19;0.40;;;0.40;;
21206;SDS011;10761;48.532;8.026;2023-08-06T12:34:45;1.50;;;0.57;;
21206;SDS011;10761;48.532;8.026;2023-08-06T12:37:10;1.42;;;0.60;;
21206;SDS011;10761;48.532;8.026;2023-08-06T12:39:36;1.30;;;0.70;;
21206;SDS011;10761;48.532;8.026;2023-08-06T12:42:03;2.30;;;0.70;;
21206;SDS011;10761;48.532;8.026;2023-08-06T12:44:29;0.68;;;0.50;;
21206;SDS011;10761;48.532;8.026;2023-08-06T12:46:55;1.45;;;0.57;;
21206;SDS011;10761;48.532;8.026;2023-08-06T12:49:21;0.50;;;0.40;;
21206;SDS011;10761;48.532;8.026;2023-08-06T12:51:48;0.40;;;0.40;;
21206;SDS011;10761;48.532;8.026;2023-08-06T12:54:15;0.50;;;0.50;;
21206;SDS011;10761;48.532;8.026;2023-08-06T12:56:42;1.60;;;0.50;;
21206;SDS011;10761;48.532;8.026;2023-08-06T12:59:08;0.65;;;0.45;;
21206;SDS011;10761;48.532;8.026;2023-08-06T13:01:33;1.77;;;0.63;;
21206;SDS011;10761;48.532;8.026;2023-08-06T13:03:59;0.50;;;0.50;;
21206;SDS011;10761;48.532;8.026;2023-08-06T13:06:25;1.55;;;0.40;;
21206;SDS011;10761;48.532;8.026;2023-08-06T13:08:51;1.67;;;0.60;;
21206;SDS011;10761;48.532;8.026;2023-08-06T13:11:16;0.77;;;0.50;;
21206;SDS011;10761;48.532;8.026;2023-08-06T13:13:44;3.13;;;0.40;;
21206;SDS011;10761;48.532;8.026;2023-08-06T13:16:09;0.65;;;0.40;;
21206;SDS011;10761;48.532;8.026;2023-08-06T13:18:35;0.65;;;0.50;;
21206;SDS011;10761;48.532;8.026;2023-08-06T13:21:00;1.05;;;0.50;;
21206;SDS011;10761;48.532;8.026;2023-08-06T13:23:26;2.10;;;0.50;;
21206;SDS011;10761;48.532;8.026;2023-08-06T13:25:51;1.63;;;0.60;;
21206;SDS011;10761;48.532;8.026;2023-08-06T13:28:17;0.32;;;0.32;;
21206;SDS011;10761;48.532;8.026;2023-08-06T13:30:43;1.75;;;0.68;;
21206;SDS011;10761;48.532;8.026;2023-08-06T13:33:09;0.88;;;0.40;;
21206;SDS011;10761;48.532;8.026;2023-08-06T13:35:35;0.60;;;0.60;;
21206;SDS011;10761;48.532;8.026;2023-08-06T13:38:00;1.58;;;0.85;;
21206;SDS011;10761;48.532;8.026;2023-08-06T13:40:30;0.88;;;0.57;;
21206;SDS011;10761;48.532;8.026;2023-08-06T13:42:57;2.30;;;0.60;;
21206;SDS011;10761;48.532;8.026;2023-08-06T13:45:23;1.77;;;0.60;;
21206;SDS011;10761;48.532;8.026;2023-08-06T13:47:49;1.15;;;0.63;;
21206;SDS011;10761;48.532;8.026;2023-08-06T13:50:14;1.30;;;0.43;;
21206;SDS011;10761;48.532;8.026;2023-08-06T13:52:40;1.15;;;0.50;;
21206;SDS011;10761;48.532;8.026;2023-08-06T13:55:06;1.77;;;0.50;;
21206;SDS011;10761;48.532;8.026;2023-08-06T13:57:32;1.63;;;0.60;;
21206;SDS011;10761;48.532;8.026;2023-08-06T13:59:59;0.82;;;0.70;;
21206;SDS011;10761;48.532;8.026;2023-08-06T14:02:24;1.08;;;0.90;;
21206;SDS011;10761;48.532;8.026;2023-08-06T14:04:51;0.98;;;0.68;;
21206;SDS011;10761;48.532;8.026;2023-08-06T14:07:17;3.72;;;0.82;;
21206;SDS011;10761;48.532;8.026;2023-08-06T14:09:43;0.60;;;0.50;;
21206;SDS011;10761;48.532;8.026;2023-08-06T14:12:09;1.95;;;0.50;;
21206;SDS011;10761;48.532;8.026;2023-08-06T14:14:35;1.58;;;0.50;;
21206;SDS011;10761;48.532;8.026;2023-08-06T14:17:01;1.20;;;0.60;;
21206;SDS011;10761;48.532;8.026;2023-08-06T14:19:26;0.63;;;0.40;;
21206;SDS011;10761;48.532;8.026;2023-08-06T14:21:52;1.67;;;0.70;;
21206;SDS011;10761;48.532;8.026;2023-08-06T14:24:18;0.95;;;0.50;;
21206;SDS011;10761;48.532;8.026;2023-08-06T14:26:44;1.42;;;1.10;;
21206;SDS011;10761;48.532;8.026;2023-08-06T14:29:09;1.17;;;0.60;;
21206;SDS011;10761;48.532;8.026;2023-08-06T14:31:35;3.33;;;0.70;;
21206;SDS011;10761;48.532;8.026;2023-08-06T14:34:01;1.60;;;0.90;;
21206;SDS011;10761;48.532;8.026;2023-08-06T14:36:27;1.48;;;0.80;;
21206;SDS011;10761;48.532;8.026;2023-08-06T14:38:52;1.48;;;0.80;;
21206;SDS011;10761;48.532;8.026;2023-08-06T14:41:18;0.82;;;0.70;;
21206;SDS011;10761;48.532;8.026;2023-08-06T14:43:43;1.65;;;0.70;;
21206;SDS011;10761;48.532;8.026;2023-08-06T14:46:09;0.77;;;0.60;;
21206;SDS011;10761;48.532;8.026;2023-08-06T14:48:34;0.73;;;0.73;;
21206;SDS011;10761;48.532;8.026;2023-08-06T14:51:00;1.35;;;0.85;;
21206;SDS011;10761;48.532;8.026;2023-08-06T14:53:26;1.08;;;0.80;;
21206;SDS011;10761;48.532;8.026;2023-08-06T14:55:51;1.40;;;0.90;;